Página principal
METAR-TAF:

METAR-TAF

Aeroportos :

Berlin, Alemanha

Aeroporto de Berlim-Tegel

latitude: 52-34N, longitude: 013-19E, altura: 37 m

Observação actual do tempo

O boletim foi feito há 10 minutos, às 11:50 UTC
Vento 13 kt de nordeste, variando entre norte e este
Temperatura 0°C
Humidade 37%
Pressão 1030 hPa
Visibilidade 10 km ou mais
sem nuvens abaixo de 1500 metros e sem cumulonimbus

METAR: EDDT 241150Z 04013KT 360V090 CAVOK 00/M13 Q1030 TEMPO 05015G25KT

Hora: 13:00 (12:00 UTC)

Previsão

O boletim foi feito há 1 hora e 0 minutos, às 11:00 UTC
Previsão válida de 24 às 12 UTC a 25 às 12 UTC
Vento 15 kt de nordeste com rajadas de 25 kt
Visibilidade 10 km ou mais
Nuvens dispersasa uma altura de 4500 ft
Tornando-se
de 24 às 14 UTC a 24 às 17 UTC
Vento 9 kt de nordeste

TAF: EDDT 241100Z 2412/2512 05015G25KT 9999 SCT045 BECMG 2414/2417 05009KT

Observações e previsões do tempo de mais de 4000 aeroportos (mensagens METAR e TAF).

As estações disponíveis são os pontos amarelos e vermelhos sobre o mapa.

Mova o rato sobre o mapa para ver o nome da estação.

Depois clique no ponto para visualizar as observações e previsões meteorológicas.

Para alterar o mapa : clique nos botões verdes com uma cruz preta para aumentar o zoom; no botão verde com uma pitada de zoom; ou nas setas verdes para mapas adjacentes.


METAR-TAF: